Time;durP1;ratioP1;P1;durP2;ratioP2;P2;SDS_P1;SDS_P2;PMS_P1;PMS_P2;Temp;Humidity;BMP_temperature;BMP_pressure;BME280_temperature;BME280_humidity;BME280_pressure;Samples;Min_cycle;Max_cycle;Signal;HPM_P1;HPM_P2
2023/06/27 00:00:37;;;;;;;10.20;7.32;;;30.50;99.90;;;;;;5075923;28;20025;-61
2023/06/27 00:03:02;;;;;;;9.98;7.53;;;30.30;99.90;;;;;;5076123;28;20454;-60
2023/06/27 00:05:30;;;;;;;9.07;7.40;;;30.30;99.90;;;;;;5070605;28;20533;-61
2023/06/27 00:07:56;;;;;;;11.15;7.65;;;30.30;99.90;;;;;;5075927;28;20027;-61
2023/06/27 00:10:21;;;;;;;11.98;6.80;;;30.40;99.90;;;;;;5075739;28;20025;-60
2023/06/27 00:12:47;;;;;;;10.50;7.95;;;30.30;99.90;;;;;;5074619;28;20039;-61
2023/06/27 00:15:13;;;;;;;10.23;7.82;;;30.20;99.90;;;;;;5075956;28;20033;-60
2023/06/27 00:17:40;;;;;;;10.70;8.20;;;30.40;99.90;;;;;;5075709;28;20496;-60
2023/06/27 00:20:09;;;;;;;12.82;7.32;;;30.50;99.90;;;;;;5075771;28;20090;-61
2023/06/27 00:22:39;;;;;;;9.27;7.45;;;30.40;99.90;;;;;;5068745;28;20443;-60
2023/06/27 00:25:06;;;;;;;8.52;7.75;;;30.10;99.90;;;;;;5102512;28;20035;-61
2023/06/27 00:27:31;;;;;;;11.05;8.23;;;30.00;99.90;;;;;;5075366;28;20031;-60
2023/06/27 00:29:57;;;;;;;10.77;8.25;;;30.10;99.90;;;;;;5075407;28;20049;-60
2023/06/27 00:32:22;;;;;;;10.98;7.85;;;30.10;99.90;;;;;;5075343;28;20032;-60
2023/06/27 00:34:48;;;;;;;8.82;7.93;;;30.30;99.90;;;;;;5075727;28;20382;-60
2023/06/27 00:37:14;;;;;;;11.75;8.70;;;30.20;99.90;;;;;;5075218;28;20024;-61
2023/06/27 00:39:42;;;;;;;12.27;8.50;;;30.10;99.90;;;;;;5075571;28;20031;-60
2023/06/27 00:42:08;;;;;;;9.10;8.20;;;30.10;99.90;;;;;;5074788;28;20032;-62
2023/06/27 00:44:34;;;;;;;9.98;8.65;;;30.00;99.90;;;;;;5074996;28;20440;-61
2023/06/27 00:47:00;;;;;;;12.73;8.43;;;29.90;99.90;;;;;;5075390;28;20042;-61
2023/06/27 00:49:25;;;;;;;13.52;7.93;;;30.00;99.90;;;;;;5073938;28;20035;-61
2023/06/27 00:51:53;;;;;;;9.55;8.05;;;29.80;99.90;;;;;;5072736;28;20402;-64
2023/06/27 00:54:19;;;;;;;8.63;7.55;;;30.00;99.90;;;;;;5064031;28;20021;-61
2023/06/27 00:56:45;;;;;;;10.23;8.05;;;30.00;99.90;;;;;;5075174;28;20028;-61
2023/06/27 00:59:11;;;;;;;11.25;8.57;;;30.00;99.90;;;;;;5074961;28;20013;-61
2023/06/27 01:01:38;;;;;;;12.25;8.45;;;30.00;99.90;;;;;;5075076;28;20028;-61
2023/06/27 01:04:04;;;;;;;11.00;7.43;;;30.00;99.90;;;;;;5074835;28;20039;-61
2023/06/27 01:06:45;;;;;;;7.93;7.18;;;30.00;99.90;;;;;;5074608;28;20039;-61
2023/06/27 01:09:39;;;;;;;12.65;7.97;;;29.90;99.90;;;;;;5074266;28;20465;-61
2023/06/27 01:12:17;;;;;;;9.30;7.57;;;30.00;99.90;;;;;;5067362;28;20063;-61
2023/06/27 01:14:45;;;;;;;9.48;8.30;;;29.90;99.90;;;;;;5061829;28;20025;-61
2023/06/27 01:17:13;;;;;;;9.68;8.43;;;29.80;99.90;;;;;;5070843;28;20462;-61
2023/06/27 01:19:44;;;;;;;9.27;7.60;;;29.40;99.90;;;;;;5074516;28;20115;-61
2023/06/27 01:22:17;;;;;;;11.63;7.25;;;29.40;99.90;;;;;;5073249;28;20494;-62
2023/06/27 01:24:43;;;;;;;12.15;8.30;;;29.40;99.90;;;;;;5073971;28;20048;-61
2023/06/27 01:27:11;;;;;;;8.52;7.63;;;29.40;99.90;;;;;;5073725;28;20060;-59
2023/06/27 01:29:40;;;;;;;9.75;7.38;;;29.30;99.90;;;;;;5073279;28;20515;-59
2023/06/27 01:32:18;;;;;;;11.27;7.75;;;29.30;99.90;;;;;;5073867;28;20064;-59
2023/06/27 01:35:02;;;;;;;10.13;7.22;;;29.30;99.90;;;;;;5074326;28;20485;-61
2023/06/27 01:37:41;;;;;;;12.45;7.90;;;29.50;99.90;;;;;;5074282;28;20557;-61
2023/06/27 01:40:16;;;;;;;12.75;8.20;;;29.30;99.90;;;;;;5074224;28;20454;-61
2023/06/27 01:42:46;;;;;;;9.07;7.43;;;29.40;99.90;;;;;;5074308;28;20029;-62
2023/06/27 01:45:14;;;;;;;8.50;6.70;;;29.40;99.90;;;;;;5074045;28;20020;-62
2023/06/27 01:47:42;;;;;;;10.05;7.50;;;29.40;99.90;;;;;;5064378;28;20052;-61
2023/06/27 01:50:09;;;;;;;8.13;7.32;;;29.50;99.90;;;;;;5074099;28;20024;-61
2023/06/27 01:52:35;;;;;;;8.77;7.75;;;29.40;99.90;;;;;;5069136;28;20039;-62
2023/06/27 01:55:01;;;;;;;10.98;7.50;;;29.40;99.90;;;;;;5068656;28;20028;-61
2023/06/27 01:57:27;;;;;;;8.93;8.05;;;29.30;99.90;;;;;;5065898;28;20025;-62
2023/06/27 01:59:53;;;;;;;9.88;6.57;;;29.30;99.90;;;;;;5073934;28;20016;-62
2023/06/27 02:02:19;;;;;;;10.45;7.90;;;29.20;99.90;;;;;;5073672;28;20069;-62
2023/06/27 02:04:45;;;;;;;8.20;6.82;;;29.20;99.90;;;;;;5073695;28;20117;-61
2023/06/27 02:07:11;;;;;;;14.57;7.88;;;29.20;99.90;;;;;;5073963;28;20056;-61
2023/06/27 02:09:37;;;;;;;7.80;7.00;;;29.10;99.90;;;;;;5073626;28;20457;-61
2023/06/27 02:12:04;;;;;;;10.43;6.93;;;29.10;99.90;;;;;;5073534;28;20056;-61
2023/06/27 02:14:30;;;;;;;19.92;7.70;;;29.20;99.90;;;;;;5073617;28;20029;-61
2023/06/27 02:16:56;;;;;;;11.02;7.30;;;29.30;99.90;;;;;;5073415;28;20036;-61
2023/06/27 02:19:21;;;;;;;10.32;7.50;;;29.20;99.90;;;;;;5073412;28;20386;-62
2023/06/27 02:21:51;;;;;;;8.57;7.55;;;29.20;99.90;;;;;;5073250;28;20383;-61
2023/06/27 02:24:17;;;;;;;9.52;7.22;;;29.10;99.90;;;;;;5073404;28;20509;-61
2023/06/27 02:26:43;;;;;;;8.88;7.22;;;29.00;99.90;;;;;;5073322;28;20024;-62
2023/06/27 02:29:09;;;;;;;9.73;8.23;;;29.00;99.90;;;;;;5073084;28;20114;-61
2023/06/27 02:31:35;;;;;;;10.40;7.70;;;28.80;99.90;;;;;;5073146;28;20028;-61
2023/06/27 02:34:01;;;;;;;10.70;7.60;;;28.90;99.90;;;;;;5073178;28;20374;-61
2023/06/27 02:36:27;;;;;;;10.38;8.52;;;28.90;99.90;;;;;;5069680;28;20017;-62
2023/06/27 02:38:54;;;;;;;8.40;7.00;;;28.80;99.90;;;;;;5073124;28;20394;-61
2023/06/27 02:41:23;;;;;;;8.82;6.88;;;28.80;99.90;;;;;;5073161;28;20016;-61
2023/06/27 02:43:49;;;;;;;9.43;8.43;;;28.70;99.90;;;;;;5073172;28;20086;-61
2023/06/27 02:46:15;;;;;;;7.93;7.15;;;28.70;99.90;;;;;;5072966;28;20104;-62
2023/06/27 02:48:41;;;;;;;8.93;7.70;;;28.80;99.90;;;;;;5073077;28;20048;-61
2023/06/27 02:51:07;;;;;;;10.02;7.68;;;28.60;99.90;;;;;;5072953;28;20032;-62
2023/06/27 02:53:32;;;;;;;10.98;8.20;;;28.60;99.90;;;;;;5073129;28;20039;-61
2023/06/27 02:56:02;;;;;;;10.60;7.47;;;28.70;99.90;;;;;;5072913;28;20052;-61
2023/06/27 02:58:31;;;;;;;11.30;7.43;;;28.70;99.90;;;;;;5073219;28;20024;-61
2023/06/27 03:01:06;;;;;;;10.75;8.13;;;28.80;99.90;;;;;;5072969;28;20017;-61
2023/06/27 03:03:35;;;;;;;11.55;8.32;;;28.80;99.90;;;;;;5072901;28;20103;-59
2023/06/27 03:06:08;;;;;;;7.43;6.68;;;28.70;99.90;;;;;;5072757;28;20020;-59
2023/06/27 03:08:35;;;;;;;8.60;6.95;;;28.50;99.90;;;;;;5064037;28;20159;-59
2023/06/27 03:11:01;;;;;;;9.80;7.40;;;28.80;99.90;;;;;;5072853;28;20110;-59
2023/06/27 03:13:26;;;;;;;8.25;7.45;;;28.70;99.90;;;;;;5072626;28;20083;-59
2023/06/27 03:15:52;;;;;;;8.27;7.47;;;28.60;99.90;;;;;;5068357;28;20543;-59
2023/06/27 03:18:18;;;;;;;8.25;7.50;;;28.50;99.90;;;;;;5072605;28;20032;-59
2023/06/27 03:20:43;;;;;;;9.15;8.13;;;28.50;99.90;;;;;;5072592;28;20381;-59
2023/06/27 03:23:09;;;;;;;9.20;6.65;;;28.50;99.90;;;;;;5073158;28;20123;-59
2023/06/27 03:25:34;;;;;;;10.32;7.03;;;28.50;99.90;;;;;;5072667;28;20442;-59
2023/06/27 03:28:02;;;;;;;8.82;7.45;;;28.60;99.90;;;;;;5072705;28;20054;-59
2023/06/27 03:30:27;;;;;;;8.63;6.85;;;28.70;99.90;;;;;;5071859;28;20040;-59
2023/06/27 03:32:53;;;;;;;9.07;7.88;;;28.70;99.90;;;;;;5067088;28;20033;-59
2023/06/27 03:35:19;;;;;;;8.38;7.00;;;28.70;99.90;;;;;;5070532;28;20035;-59
2023/06/27 03:37:44;;;;;;;7.82;7.03;;;28.70;99.90;;;;;;5072465;28;20474;-59
2023/06/27 03:40:11;;;;;;;7.63;6.68;;;28.70;99.90;;;;;;5072440;28;20021;-59
2023/06/27 03:42:37;;;;;;;8.40;7.15;;;28.70;99.90;;;;;;5072406;28;20025;-59
2023/06/27 03:45:03;;;;;;;7.70;6.72;;;28.80;99.90;;;;;;5072481;28;20059;-60
2023/06/27 03:47:30;;;;;;;7.70;6.57;;;28.80;99.90;;;;;;5072453;28;20021;-60
2023/06/27 03:49:58;;;;;;;8.30;6.93;;;28.70;99.90;;;;;;5072441;28;20367;-60
2023/06/27 03:52:24;;;;;;;10.18;6.78;;;28.70;99.90;;;;;;5072103;28;20043;-60
2023/06/27 03:54:50;;;;;;;9.15;7.55;;;28.70;99.90;;;;;;5072280;28;20028;-60
2023/06/27 03:57:15;;;;;;;10.07;7.03;;;28.60;99.90;;;;;;5072406;28;20039;-60
2023/06/27 03:59:41;;;;;;;13.30;8.05;;;28.60;99.90;;;;;;5072318;28;20128;-60
2023/06/27 04:02:06;;;;;;;8.93;7.03;;;28.60;99.90;;;;;;5072207;28;20044;-60
2023/06/27 04:04:32;;;;;;;8.98;6.80;;;28.60;99.90;;;;;;5072057;28;20028;-60
2023/06/27 04:06:58;;;;;;;7.50;6.68;;;28.60;99.90;;;;;;5072543;28;20028;-60
2023/06/27 04:09:23;;;;;;;8.35;7.40;;;28.60;99.90;;;;;;5072205;28;20099;-60
2023/06/27 04:11:49;;;;;;;8.90;6.88;;;28.60;99.90;;;;;;5062677;28;20051;-60
2023/06/27 04:14:17;;;;;;;8.50;7.07;;;28.60;99.90;;;;;;5070519;28;20099;-60
2023/06/27 04:16:46;;;;;;;10.50;6.72;;;28.60;99.90;;;;;;5064496;28;20025;-60
2023/06/27 04:19:12;;;;;;;7.68;6.97;;;28.50;99.90;;;;;;5072344;28;20025;-60
2023/06/27 04:21:37;;;;;;;9.18;7.13;;;28.50;99.90;;;;;;5075579;28;20017;-60
2023/06/27 04:24:03;;;;;;;9.40;7.05;;;28.50;99.90;;;;;;5075548;28;20055;-60
2023/06/27 04:26:30;;;;;;;9.65;7.25;;;28.50;99.90;;;;;;5075736;28;20020;-60
2023/06/27 04:28:56;;;;;;;10.05;7.60;;;28.50;99.90;;;;;;5074021;28;20152;-60
2023/06/27 04:31:22;;;;;;;10.80;7.82;;;28.50;99.90;;;;;;5073138;28;20107;-60
2023/06/27 04:33:48;;;;;;;9.00;7.13;;;28.50;99.90;;;;;;5075409;28;20036;-63
2023/06/27 04:36:20;;;;;;;8.88;7.40;;;28.60;99.90;;;;;;5069124;28;20038;-60
2023/06/27 04:38:48;;;;;;;10.40;7.30;;;28.50;99.90;;;;;;5075661;28;20112;-63
2023/06/27 04:41:13;;;;;;;8.48;7.68;;;28.50;99.90;;;;;;5075193;28;20025;-62
2023/06/27 04:43:39;;;;;;;10.95;7.60;;;28.50;99.90;;;;;;5075142;28;20547;-62
2023/06/27 04:46:05;;;;;;;8.82;7.97;;;28.60;99.90;;;;;;5075510;28;20035;-62
2023/06/27 04:48:31;;;;;;;8.60;7.38;;;28.60;99.90;;;;;;5075284;28;20047;-62
2023/06/27 04:50:57;;;;;;;10.85;7.93;;;28.60;99.90;;;;;;5075210;28;20063;-62
2023/06/27 04:53:23;;;;;;;9.30;7.15;;;28.60;99.90;;;;;;5074982;28;20482;-62
2023/06/27 04:56:13;;;;;;;11.40;7.90;;;28.60;99.90;;;;;;5075283;28;20028;-62
2023/06/27 04:58:39;;;;;;;10.65;7.88;;;28.60;99.90;;;;;;5067455;28;20029;-62
2023/06/27 05:01:05;;;;;;;9.98;7.15;;;28.60;99.90;;;;;;5070273;28;20032;-62
2023/06/27 05:03:30;;;;;;;10.13;7.00;;;28.50;99.90;;;;;;5061484;28;20025;-62
2023/06/27 05:05:56;;;;;;;10.30;7.55;;;28.60;99.90;;;;;;5074901;28;20416;-62
2023/06/27 05:08:22;;;;;;;14.50;7.32;;;28.50;99.90;;;;;;5074766;28;20033;-62
2023/06/27 05:10:47;;;;;;;10.32;7.60;;;28.60;99.90;;;;;;5074792;28;20036;-62
2023/06/27 05:13:14;;;;;;;8.45;7.55;;;28.50;99.90;;;;;;5074952;28;20032;-62
2023/06/27 05:15:40;;;;;;;13.13;7.90;;;28.40;99.90;;;;;;5068025;28;20111;-62
2023/06/27 05:18:09;;;;;;;11.68;7.88;;;28.50;99.90;;;;;;5074859;28;20060;-62
2023/06/27 05:20:35;;;;;;;10.70;7.32;;;28.50;99.90;;;;;;5074867;28;20424;-62
2023/06/27 05:23:01;;;;;;;13.52;8.15;;;28.60;99.90;;;;;;5074593;28;20020;-62
2023/06/27 05:25:28;;;;;;;10.05;8.25;;;28.40;99.90;;;;;;5074559;28;20021;-62
2023/06/27 05:27:54;;;;;;;9.45;7.55;;;28.40;99.90;;;;;;5074826;28;20101;-62
2023/06/27 05:30:20;;;;;;;13.02;7.85;;;28.50;99.90;;;;;;5064880;28;20097;-62
2023/06/27 05:32:55;;;;;;;12.95;7.53;;;28.40;99.90;;;;;;5073331;28;20032;-62
2023/06/27 05:35:23;;;;;;;13.77;7.57;;;28.40;99.90;;;;;;5072160;28;20028;-65
2023/06/27 05:37:49;;;;;;;10.88;8.88;;;28.60;99.90;;;;;;5074503;28;20063;-62
2023/06/27 05:40:15;;;;;;;12.35;7.63;;;28.60;99.90;;;;;;5074250;28;20052;-61
2023/06/27 05:42:41;;;;;;;9.18;7.13;;;28.80;99.90;;;;;;5074481;28;20028;-62
2023/06/27 05:45:07;;;;;;;10.68;7.05;;;28.80;99.90;;;;;;5073932;28;20078;-62
2023/06/27 05:47:33;;;;;;;10.10;7.80;;;28.90;99.90;;;;;;5074290;28;20414;-62
2023/06/27 05:49:59;;;;;;;10.68;7.80;;;28.90;99.90;;;;;;5074050;28;20021;-61
2023/06/27 05:52:24;;;;;;;17.02;9.43;;;28.90;99.90;;;;;;5066449;28;20593;-62
2023/06/27 05:54:51;;;;;;;8.77;7.97;;;28.50;99.90;;;;;;5073898;28;20028;-62
2023/06/27 05:57:18;;;;;;;13.52;9.18;;;28.60;99.90;;;;;;5065872;28;20036;-61
2023/06/27 05:59:43;;;;;;;10.98;9.45;;;28.40;99.90;;;;;;5073853;28;20020;-61
2023/06/27 06:02:09;;;;;;;12.80;8.73;;;28.20;99.90;;;;;;5072351;28;20024;-61
2023/06/27 06:04:35;;;;;;;15.32;7.60;;;28.10;99.90;;;;;;5073701;28;20126;-61
2023/06/27 06:07:03;;;;;;;10.77;9.65;;;28.10;99.90;;;;;;5073763;28;20063;-61
2023/06/27 06:09:30;;;;;;;8.68;7.78;;;28.10;99.90;;;;;;5073735;28;20028;-61
2023/06/27 06:11:56;;;;;;;8.85;7.78;;;28.20;99.90;;;;;;5059642;28;20081;-62
2023/06/27 06:14:22;;;;;;;8.93;8.02;;;28.30;99.90;;;;;;5073436;28;20100;-61
2023/06/27 06:16:48;;;;;;;10.80;8.40;;;28.50;99.90;;;;;;5073674;28;20056;-61
2023/06/27 06:19:14;;;;;;;10.02;7.93;;;28.40;99.90;;;;;;5069371;28;20424;-62
2023/06/27 06:21:40;;;;;;;10.60;8.45;;;28.60;99.90;;;;;;5070641;28;20398;-62
2023/06/27 06:24:08;;;;;;;11.20;7.65;;;28.60;99.90;;;;;;5073401;28;20035;-62
2023/06/27 06:26:35;;;;;;;9.30;8.35;;;28.60;99.90;;;;;;5073355;28;20047;-62
2023/06/27 06:29:04;;;;;;;9.88;8.15;;;28.50;99.90;;;;;;5072940;28;20063;-62
2023/06/27 06:31:30;;;;;;;12.57;8.45;;;28.70;99.90;;;;;;5073210;28;20055;-62
2023/06/27 06:33:57;;;;;;;9.48;8.55;;;28.70;99.90;;;;;;5060212;28;20377;-63
2023/06/27 06:36:23;;;;;;;11.43;9.55;;;28.70;99.90;;;;;;5073059;28;20033;-63
2023/06/27 06:38:49;;;;;;;13.07;8.57;;;28.60;99.90;;;;;;5070423;28;20021;-63
2023/06/27 06:41:15;;;;;;;9.50;8.52;;;28.60;99.90;;;;;;5073419;28;20036;-62
2023/06/27 06:43:41;;;;;;;11.90;8.10;;;28.60;99.90;;;;;;5068359;28;20420;-62
2023/06/27 06:46:06;;;;;;;14.38;9.98;;;28.70;99.90;;;;;;5073049;28;20112;-62
2023/06/27 06:48:32;;;;;;;12.23;9.50;;;28.90;99.90;;;;;;5073059;28;20024;-63
2023/06/27 06:50:58;;;;;;;9.85;8.85;;;28.90;99.90;;;;;;5072374;28;20024;-62
2023/06/27 06:53:23;;;;;;;11.23;9.10;;;28.90;99.90;;;;;;5072064;28;20066;-63
2023/06/27 06:55:49;;;;;;;13.02;8.70;;;28.90;99.90;;;;;;5072222;28;20082;-63
2023/06/27 06:58:15;;;;;;;13.95;10.10;;;28.80;99.90;;;;;;5065274;28;20056;-63
2023/06/27 07:00:41;;;;;;;12.70;8.32;;;28.80;99.90;;;;;;5068374;28;20012;-63
2023/06/27 07:03:09;;;;;;;13.77;9.73;;;28.80;99.90;;;;;;5066298;28;20386;-63
2023/06/27 07:05:36;;;;;;;10.93;8.75;;;28.90;99.90;;;;;;5072612;28;20029;-63
2023/06/27 07:08:05;;;;;;;12.07;9.60;;;28.80;99.90;;;;;;5068714;28;20020;-62
2023/06/27 07:10:31;;;;;;;13.13;9.45;;;28.90;99.90;;;;;;5070873;28;20029;-62
2023/06/27 07:12:57;;;;;;;11.68;9.82;;;28.90;99.90;;;;;;5071641;28;20032;-62
2023/06/27 07:15:23;;;;;;;16.13;11.70;;;29.10;99.90;;;;;;5069994;28;20038;-62
2023/06/27 07:17:53;;;;;;;12.48;9.90;;;29.40;99.90;;;;;;5071698;28;20017;-62
2023/06/27 07:20:22;;;;;;;13.02;9.80;;;29.00;99.90;;;;;;5071664;28;20056;-62
2023/06/27 07:22:48;;;;;;;10.07;9.00;;;29.20;99.90;;;;;;5067500;28;20035;-63
2023/06/27 07:25:14;;;;;;;11.20;9.43;;;29.50;99.90;;;;;;5071681;28;20482;-62
2023/06/27 07:27:42;;;;;;;12.18;8.88;;;29.50;99.90;;;;;;5071531;28;20039;-62
2023/06/27 07:30:08;;;;;;;10.77;8.45;;;29.60;99.90;;;;;;5070574;28;20071;-63
2023/06/27 07:32:34;;;;;;;10.40;7.47;;;29.60;99.90;;;;;;5065073;28;20064;-63
2023/06/27 07:34:59;;;;;;;11.35;8.75;;;30.10;99.90;;;;;;5069715;28;20541;-63
2023/06/27 07:37:25;;;;;;;8.65;7.65;;;30.30;99.90;;;;;;5069317;28;20028;-63
2023/06/27 07:39:50;;;;;;;11.25;9.98;;;30.30;99.90;;;;;;5070266;28;20056;-63
2023/06/27 07:42:17;;;;;;;11.80;10.57;;;30.20;99.90;;;;;;5071124;28;20025;-63
2023/06/27 07:44:43;;;;;;;13.40;8.93;;;30.00;99.90;;;;;;5067426;28;20051;-64
2023/06/27 07:47:09;;;;;;;13.05;9.05;;;30.10;99.90;;;;;;5068382;28;20100;-64
2023/06/27 07:49:34;;;;;;;10.90;9.63;;;30.20;99.90;;;;;;5070681;28;20137;-63
2023/06/27 07:52:00;;;;;;;11.48;9.10;;;30.20;99.90;;;;;;5068862;28;20056;-63
2023/06/27 07:54:27;;;;;;;13.15;10.38;;;30.20;99.90;;;;;;5064800;28;20062;-63
2023/06/27 07:56:56;;;;;;;12.32;9.73;;;30.20;99.90;;;;;;5074270;28;20029;-63
2023/06/27 07:59:22;;;;;;;11.70;10.50;;;30.50;99.90;;;;;;5075469;28;20021;-63
2023/06/27 08:01:48;;;;;;;12.07;10.50;;;30.70;99.90;;;;;;5070295;28;20371;-63
2023/06/27 08:04:15;;;;;;;14.25;11.07;;;30.30;99.90;;;;;;5062062;28;20021;-63
2023/06/27 08:06:41;;;;;;;12.55;9.23;;;30.20;99.90;;;;;;5075779;28;20537;-63
2023/06/27 08:09:07;;;;;;;10.13;8.65;;;30.60;99.90;;;;;;5073998;28;20021;-63
2023/06/27 08:11:33;;;;;;;9.63;7.93;;;30.60;99.90;;;;;;5075092;28;20028;-63
2023/06/27 08:13:59;;;;;;;8.98;6.55;;;30.50;99.90;;;;;;5075703;28;20043;-63
2023/06/27 08:16:25;;;;;;;7.10;6.50;;;30.50;99.90;;;;;;5074010;28;20382;-64
2023/06/27 08:18:50;;;;;;;10.45;7.18;;;30.70;99.90;;;;;;5073597;28;20060;-64
2023/06/27 08:21:16;;;;;;;6.97;6.28;;;30.60;99.90;;;;;;5073710;28;20473;-64
2023/06/27 08:23:42;;;;;;;9.10;7.20;;;30.70;99.90;;;;;;5075697;28;20024;-63
2023/06/27 08:26:12;;;;;;;9.55;7.35;;;30.80;99.90;;;;;;5073018;28;20442;-64
2023/06/27 08:28:38;;;;;;;8.27;6.65;;;30.90;99.90;;;;;;5075756;28;20040;-63
2023/06/27 08:31:03;;;;;;;12.13;6.70;;;30.80;99.90;;;;;;5070789;28;20021;-64
2023/06/27 08:33:29;;;;;;;7.68;6.93;;;31.10;99.90;;;;;;5071833;28;20079;-64
2023/06/27 08:35:55;;;;;;;8.63;6.90;;;30.60;99.90;;;;;;5071454;28;20024;-64
2023/06/27 08:38:20;;;;;;;9.48;6.35;;;30.80;99.90;;;;;;5073967;28;20043;-64
2023/06/27 08:40:50;;;;;;;8.18;6.75;;;31.00;99.90;;;;;;5075565;28;20023;-64
2023/06/27 08:43:15;;;;;;;8.18;7.35;;;30.80;99.90;;;;;;5073577;28;20028;-64
2023/06/27 08:45:41;;;;;;;9.27;6.30;;;30.80;99.90;;;;;;5073357;28;20024;-63
2023/06/27 08:48:09;;;;;;;7.88;6.65;;;30.80;99.90;;;;;;5071873;28;20103;-63
2023/06/27 08:50:40;;;;;;;8.07;5.90;;;31.20;99.90;;;;;;5065492;28;20021;-64
2023/06/27 08:53:08;;;;;;;7.00;6.38;;;30.80;99.90;;;;;;5074017;28;20074;-64
2023/06/27 08:55:53;;;;;;;6.43;5.63;;;30.80;99.90;;;;;;5075152;28;20017;-64
2023/06/27 08:58:24;;;;;;;7.32;6.53;;;31.00;99.90;;;;;;5072884;28;20086;-64
2023/06/27 09:00:52;;;;;;;7.05;6.43;;;31.00;99.90;;;;;;5075013;28;20390;-64
2023/06/27 09:03:19;;;;;;;7.03;6.32;;;31.10;99.90;;;;;;5074053;28;20466;-63
2023/06/27 09:05:47;;;;;;;8.50;6.75;;;31.10;99.90;;;;;;5073619;28;20035;-63
2023/06/27 09:08:13;;;;;;;9.10;5.65;;;31.10;99.90;;;;;;5068736;28;20459;-64
2023/06/27 09:10:40;;;;;;;6.68;5.43;;;31.10;99.90;;;;;;5087498;28;20032;-64
2023/06/27 09:13:06;;;;;;;5.80;5.30;;;31.20;99.90;;;;;;5067267;28;20086;-64
2023/06/27 09:15:31;;;;;;;6.55;5.43;;;31.50;99.90;;;;;;5071526;28;20065;-64
2023/06/27 09:17:57;;;;;;;7.30;5.95;;;31.70;99.90;;;;;;5073579;28;20028;-64
2023/06/27 09:20:24;;;;;;;6.68;5.90;;;31.60;99.90;;;;;;5073546;28;20027;-64
2023/06/27 09:22:51;;;;;;;8.45;5.80;;;31.70;99.90;;;;;;5074247;28;20059;-64
2023/06/27 09:25:21;;;;;;;6.03;5.50;;;31.70;99.90;;;;;;5071839;28;20032;-64
2023/06/27 09:27:47;;;;;;;8.75;6.32;;;31.60;99.90;;;;;;5067852;28;20436;-63
2023/06/27 09:30:13;;;;;;;8.18;7.15;;;31.30;99.90;;;;;;5072637;28;20049;-62
2023/06/27 09:32:58;;;;;;;13.95;12.13;;;32.00;99.90;;;;;;5054758;28;20033;-65
2023/06/27 09:35:25;;;;;;;7.65;5.88;;;32.10;99.90;;;;;;5083509;28;20426;-62
2023/06/27 09:37:52;;;;;;;9.35;6.70;;;31.70;99.90;;;;;;5071795;28;20082;-63
2023/06/27 09:40:19;;;;;;;6.35;5.70;;;32.20;99.90;;;;;;5067412;28;20029;-63
2023/06/27 09:42:50;;;;;;;7.60;6.00;;;32.40;99.90;;;;;;5071072;28;20032;-63
2023/06/27 09:45:16;;;;;;;6.93;5.68;;;32.20;99.90;;;;;;5073276;28;20029;-63
2023/06/27 09:47:42;;;;;;;8.20;5.60;;;32.80;99.90;;;;;;5061908;28;20481;-63
2023/06/27 09:50:08;;;;;;;8.50;5.85;;;32.90;99.90;;;;;;5064976;28;20386;-63
2023/06/27 09:52:34;;;;;;;8.02;6.55;;;32.90;99.90;;;;;;5066978;28;20047;-63
2023/06/27 09:55:29;;;;;;;6.10;5.40;;;32.90;99.90;;;;;;5054603;28;20025;-62
2023/06/27 09:57:56;;;;;;;5.05;4.55;;;32.60;99.90;;;;;;5066291;28;20028;-63
2023/06/27 10:00:23;;;;;;;9.40;6.65;;;32.80;99.90;;;;;;5072790;28;20095;-63
2023/06/27 10:02:49;;;;;;;6.45;5.85;;;32.70;99.90;;;;;;5070924;28;20086;-63
2023/06/27 10:05:16;;;;;;;7.78;5.80;;;32.70;99.90;;;;;;5067006;28;20013;-62
2023/06/27 10:07:48;;;;;;;6.47;5.88;;;32.60;99.90;;;;;;5067692;28;20025;-63
2023/06/27 10:10:14;;;;;;;6.93;6.15;;;32.50;99.90;;;;;;5073520;28;20024;-63
2023/06/27 10:12:41;;;;;;;6.78;6.20;;;32.30;99.90;;;;;;5071548;28;20127;-62
2023/06/27 10:15:10;;;;;;;8.55;6.10;;;32.40;99.90;;;;;;5073024;28;20012;-63
2023/06/27 10:17:36;;;;;;;6.25;5.75;;;32.30;99.90;;;;;;5069998;28;20035;-62
2023/06/27 10:20:04;;;;;;;9.35;6.35;;;32.30;99.90;;;;;;5065158;28;20029;-62
2023/06/27 10:22:32;;;;;;;11.50;6.93;;;32.20;99.90;;;;;;5059117;28;20013;-63
2023/06/27 10:25:08;;;;;;;9.05;6.68;;;32.20;99.90;;;;;;5068429;28;20094;-63
2023/06/27 10:27:36;;;;;;;9.18;6.65;;;32.20;99.90;;;;;;5071607;28;20112;-63
2023/06/27 10:30:15;;;;;;;10.50;7.07;;;32.00;99.90;;;;;;5073309;28;20576;-62
2023/06/27 10:32:45;;;;;;;6.90;6.25;;;32.30;99.90;;;;;;5072246;28;20072;-63
2023/06/27 10:35:12;;;;;;;7.55;5.97;;;32.40;99.90;;;;;;5073356;28;20032;-63
2023/06/27 10:37:40;;;;;;;8.55;6.47;;;32.30;99.90;;;;;;5070910;28;20033;-63
2023/06/27 10:40:09;;;;;;;6.97;5.60;;;32.60;99.90;;;;;;5072319;28;20078;-64
2023/06/27 10:42:35;;;;;;;7.57;6.75;;;32.30;99.90;;;;;;5071522;28;20063;-63
2023/06/27 10:45:04;;;;;;;7.53;6.68;;;32.40;99.90;;;;;;5070284;28;20454;-63
2023/06/27 10:47:52;;;;;;;8.73;6.28;;;32.40;99.90;;;;;;5072292;28;20488;-64
2023/06/27 10:50:21;;;;;;;8.50;6.47;;;32.60;99.90;;;;;;5072189;28;20458;-64
2023/06/27 10:53:05;;;;;;;6.93;6.25;;;32.80;99.90;;;;;;5071997;28;20033;-63
2023/06/27 10:55:32;;;;;;;7.10;6.53;;;32.90;99.90;;;;;;5072192;28;20029;-64
2023/06/27 10:58:10;;;;;;;7.95;6.40;;;33.10;99.90;;;;;;5071983;28;20036;-64
2023/06/27 11:00:40;;;;;;;7.30;6.65;;;33.20;99.90;;;;;;5104566;28;20025;-63
2023/06/27 11:03:08;;;;;;;8.98;6.93;;;33.60;99.90;;;;;;5071917;28;20520;-63
2023/06/27 11:05:43;;;;;;;7.63;6.53;;;33.60;99.90;;;;;;5071977;28;20024;-63
2023/06/27 11:08:12;;;;;;;6.97;6.38;;;33.50;99.90;;;;;;5069536;28;20082;-63
2023/06/27 11:11:08;;;;;;;7.30;6.55;;;33.50;99.90;;;;;;5070859;28;20028;-63
2023/06/27 11:13:38;;;;;;;8.35;7.65;;;34.00;99.90;;;;;;5071803;28;20371;-63
2023/06/27 11:16:04;;;;;;;8.45;6.45;;;34.10;99.90;;;;;;5071116;28;20033;-63
2023/06/27 11:18:30;;;;;;;8.05;7.13;;;34.40;99.90;;;;;;5071868;28;20047;-64
2023/06/27 11:20:57;;;;;;;8.73;6.15;;;34.80;99.90;;;;;;5069675;28;20390;-63
2023/06/27 11:23:24;;;;;;;8.13;7.35;;;36.60;99.90;;;;;;5072123;28;20052;-63
2023/06/27 11:25:52;;;;;;;9.07;6.78;;;38.00;99.90;;;;;;5071430;28;20131;-63
2023/06/27 11:28:19;;;;;;;7.68;6.95;;;39.10;99.90;;;;;;5072152;28;20024;-63
2023/06/27 11:30:45;;;;;;;12.55;7.07;;;40.30;99.90;;;;;;5073098;28;20343;-63
2023/06/27 11:33:15;;;;;;;7.75;7.05;;;40.30;99.90;;;;;;5074634;28;20025;-63
2023/06/27 11:35:41;;;;;;;10.45;7.40;;;40.40;99.90;;;;;;5075892;28;20021;-64
2023/06/27 11:38:08;;;;;;;8.18;7.45;;;40.70;99.90;;;;;;5075547;28;20031;-63
2023/06/27 11:40:34;;;;;;;8.10;7.30;;;41.10;99.90;;;;;;5075728;28;20020;-64
2023/06/27 11:43:04;;;;;;;7.55;6.90;;;43.40;99.90;;;;;;5071362;28;20036;-64
2023/06/27 11:45:33;;;;;;;7.60;6.97;;;44.50;99.90;;;;;;5075451;28;20039;-64
2023/06/27 11:48:00;;;;;;;8.57;7.57;;;44.20;99.90;;;;;;5075519;28;20025;-64
2023/06/27 11:50:26;;;;;;;9.18;8.30;;;45.30;99.90;;;;;;5070947;28;20051;-64
2023/06/27 11:52:55;;;;;;;10.18;8.30;;;45.70;99.90;;;;;;5075581;28;20036;-62
2023/06/27 11:55:20;;;;;;;8.98;7.53;;;45.20;99.90;;;;;;5075232;28;20390;-63
2023/06/27 11:57:54;;;;;;;8.70;7.95;;;44.60;99.90;;;;;;5075373;28;20031;-63
2023/06/27 12:00:22;;;;;;;9.88;9.07;;;44.60;99.90;;;;;;5075291;28;20423;-63
2023/06/27 12:02:53;;;;;;;8.43;7.82;;;44.20;99.90;;;;;;5107435;28;20508;-63
2023/06/27 12:05:20;;;;;;;9.20;8.32;;;44.40;99.90;;;;;;5071495;28;20052;-63
2023/06/27 12:08:03;;;;;;;8.13;7.43;;;44.50;99.90;;;;;;5073919;28;20012;-63
2023/06/27 12:10:31;;;;;;;8.05;7.45;;;43.90;99.90;;;;;;5069645;28;20028;-63
2023/06/27 12:12:56;;;;;;;8.95;7.68;;;43.10;99.90;;;;;;5075006;28;20563;-64
2023/06/27 12:15:22;;;;;;;9.43;8.50;;;41.60;99.90;;;;;;5074943;28;20025;-63
2023/06/27 12:18:02;;;;;;;8.85;8.15;;;40.40;99.90;;;;;;5075181;28;20481;-63
2023/06/27 12:20:44;;;;;;;9.13;8.23;;;40.40;99.90;;;;;;5071026;28;20031;-63
2023/06/27 12:23:10;;;;;;;8.52;7.82;;;41.10;99.90;;;;;;5075140;28;20099;-63
2023/06/27 12:25:39;;;;;;;8.70;8.00;;;41.40;99.90;;;;;;5074973;28;20020;-63
2023/06/27 12:28:04;;;;;;;8.75;8.07;;;40.90;99.90;;;;;;5074594;28;20428;-64
2023/06/27 12:30:30;;;;;;;9.38;8.45;;;40.30;99.90;;;;;;5074816;28;20044;-65
2023/06/27 12:32:56;;;;;;;8.98;8.23;;;39.80;99.90;;;;;;5074885;28;20032;-77
2023/06/27 12:35:22;;;;;;;8.63;7.82;;;39.30;99.90;;;;;;5074932;28;20016;-77
2023/06/27 12:37:47;;;;;;;8.85;8.10;;;38.70;99.90;;;;;;5074587;28;20033;-77
2023/06/27 12:40:17;;;;;;;8.10;7.50;;;38.80;99.90;;;;;;5074337;28;20394;-78
2023/06/27 12:42:44;;;;;;;8.45;7.75;;;38.40;99.90;;;;;;5074671;28;20029;-78
2023/06/27 12:45:11;;;;;;;7.95;7.30;;;38.90;99.90;;;;;;5074588;28;20024;-78